createdAt,value
2023-05-02T00:01:18.785Z,14.45
2023-05-02T00:03:45.527Z,14.85
2023-05-02T00:06:12.675Z,14.57
2023-05-02T00:08:39.548Z,15.23
2023-05-02T00:11:06.166Z,14.18
2023-05-02T00:13:32.773Z,15.10
2023-05-02T00:15:59.328Z,16.98
2023-05-02T00:18:25.987Z,14.73
2023-05-02T00:20:52.546Z,14.40
2023-05-02T00:23:19.216Z,15.75
2023-05-02T00:25:46.205Z,16.40
2023-05-02T00:28:13.832Z,15.88
2023-05-02T00:30:47.233Z,16.55
2023-05-02T00:33:15.854Z,14.57
2023-05-02T00:35:42.631Z,17.60
2023-05-02T00:38:09.468Z,14.43
2023-05-02T00:40:51.101Z,18.10
2023-05-02T00:43:17.950Z,15.30
2023-05-02T00:45:46.147Z,18.23
2023-05-02T00:48:13.597Z,20.63
2023-05-02T00:50:43.565Z,17.42
2023-05-02T00:53:10.887Z,15.90
2023-05-02T00:55:38.009Z,17.13
2023-05-02T00:58:12.108Z,15.70
2023-05-02T01:01:00.543Z,15.70
2023-05-02T01:03:33.149Z,15.77
2023-05-02T01:06:28.811Z,16.33
2023-05-02T01:09:14.317Z,16.92
2023-05-02T01:12:04.791Z,14.48
2023-05-02T01:14:36.069Z,17.73
2023-05-02T01:17:10.076Z,14.57
2023-05-02T01:19:40.524Z,14.40
2023-05-02T01:22:10.690Z,17.85
2023-05-02T01:24:54.785Z,17.13
2023-05-02T01:27:51.031Z,15.75
2023-05-02T01:30:20.222Z,15.95
2023-05-02T01:32:50.169Z,15.38
2023-05-02T01:35:18.049Z,17.02
2023-05-02T01:37:47.158Z,16.05
2023-05-02T01:40:19.393Z,15.05
2023-05-02T01:42:50.125Z,15.18
2023-05-02T01:45:19.018Z,14.68
2023-05-02T01:47:46.761Z,15.88
2023-05-02T01:50:17.436Z,17.10
2023-05-02T01:52:46.981Z,17.23
2023-05-02T01:55:15.438Z,13.95
2023-05-02T01:57:46.149Z,15.18
2023-05-02T02:00:16.381Z,14.68
2023-05-02T02:02:46.715Z,15.07
2023-05-02T02:05:14.798Z,16.20
2023-05-02T02:07:42.886Z,14.75
2023-05-02T02:10:09.670Z,16.92
2023-05-02T02:12:43.291Z,15.93
2023-05-02T02:15:16.297Z,15.50
2023-05-02T02:18:12.097Z,14.70
2023-05-02T02:20:43.056Z,13.57
2023-05-02T02:23:11.028Z,15.25
2023-05-02T02:25:38.176Z,16.67
2023-05-02T02:28:05.037Z,14.55
2023-05-02T02:30:31.877Z,17.40
2023-05-02T02:32:58.683Z,16.77
2023-05-02T02:35:33.272Z,12.32
2023-05-02T02:38:29.425Z,13.80
2023-05-02T02:41:23.489Z,11.82
2023-05-02T02:44:13.479Z,15.07
2023-05-02T02:46:52.164Z,16.30
2023-05-02T02:52:10.919Z,17.30
2023-05-02T02:55:07.523Z,15.43
2023-05-02T02:58:13.171Z,14.77
2023-05-02T03:00:40.554Z,16.30
2023-05-02T03:03:08.016Z,18.50
2023-05-02T03:05:35.542Z,18.58
2023-05-02T03:08:02.230Z,15.30
2023-05-02T03:10:28.837Z,17.10
2023-05-02T03:12:55.677Z,17.67
2023-05-02T03:15:46.660Z,15.65
2023-05-02T03:18:14.233Z,16.67
2023-05-02T03:20:41.961Z,19.35
2023-05-02T03:23:09.029Z,15.77
2023-05-02T03:25:35.690Z,15.57
2023-05-02T03:28:02.770Z,14.52
2023-05-02T03:30:29.661Z,13.18
2023-05-02T03:32:57.111Z,14.13
2023-05-02T03:35:23.837Z,12.75
2023-05-02T03:40:21.940Z,13.90
2023-05-02T03:42:48.852Z,16.63
2023-05-02T03:45:24.875Z,14.45
2023-05-02T03:47:52.721Z,13.85
2023-05-02T03:50:19.620Z,12.57
2023-05-02T03:52:48.798Z,12.82
2023-05-02T03:55:19.843Z,12.55
2023-05-02T03:57:47.181Z,14.10
2023-05-02T04:00:14.121Z,16.27
2023-05-02T04:02:48.019Z,13.50
2023-05-02T04:05:18.918Z,13.18
2023-05-02T04:07:48.283Z,14.25
2023-05-02T04:10:18.373Z,14.75
2023-05-02T04:12:51.803Z,17.73
2023-05-02T04:15:19.353Z,15.00
2023-05-02T04:17:47.687Z,14.55
2023-05-02T04:20:15.785Z,14.90
2023-05-02T04:22:48.003Z,17.75
2023-05-02T04:25:15.309Z,14.02
2023-05-02T04:27:42.939Z,17.40
2023-05-02T04:30:12.936Z,17.30
2023-05-02T04:32:41.819Z,17.10
2023-05-02T04:35:10.067Z,15.70
2023-05-02T04:37:38.114Z,17.27
2023-05-02T04:40:06.570Z,17.70
2023-05-02T04:42:33.265Z,19.10
2023-05-02T04:45:21.334Z,20.67
2023-05-02T04:47:48.856Z,22.27
2023-05-02T04:50:16.044Z,21.27
2023-05-02T04:52:42.695Z,19.00
2023-05-02T04:55:09.703Z,20.10
2023-05-02T04:57:37.277Z,17.10
2023-05-02T05:00:04.370Z,20.60
2023-05-02T05:02:31.266Z,20.35
2023-05-02T05:04:58.423Z,22.75
2023-05-02T05:07:25.708Z,22.17
2023-05-02T05:12:23.736Z,19.80
2023-05-02T05:14:50.955Z,19.08
2023-05-02T05:17:22.941Z,20.60
2023-05-02T05:19:49.639Z,21.83
2023-05-02T05:22:16.374Z,23.05
2023-05-02T05:24:43.187Z,19.15
2023-05-02T05:27:10.788Z,17.52
2023-05-02T05:29:37.374Z,20.60
2023-05-02T05:32:06.185Z,20.52
2023-05-02T05:34:33.705Z,19.60
2023-05-02T05:37:01.517Z,24.65
2023-05-02T05:39:28.368Z,20.88
2023-05-02T05:41:57.699Z,20.45
2023-05-02T05:44:25.488Z,25.10
2023-05-02T05:46:52.504Z,24.60
2023-05-02T05:49:22.175Z,26.40
2023-05-02T05:51:49.216Z,22.95
2023-05-02T05:56:46.143Z,27.80
2023-05-02T05:59:16.550Z,28.73
2023-05-02T06:01:43.140Z,25.63
2023-05-02T06:04:11.004Z,26.33
2023-05-02T06:06:41.591Z,25.02
2023-05-02T06:09:08.351Z,27.15
2023-05-02T06:11:38.191Z,22.80
2023-05-02T06:16:32.250Z,20.75
2023-05-02T06:18:59.001Z,21.50
2023-05-02T06:21:26.226Z,18.75
2023-05-02T06:23:53.109Z,18.95
2023-05-02T06:26:19.733Z,18.65
2023-05-02T06:28:47.551Z,17.35
2023-05-02T06:31:14.603Z,18.73
2023-05-02T06:33:41.232Z,16.98
2023-05-02T06:36:07.820Z,17.60
2023-05-02T06:38:34.466Z,18.90
2023-05-02T06:41:01.098Z,15.68
2023-05-02T06:43:28.277Z,18.95
2023-05-02T06:45:56.368Z,17.58
2023-05-02T06:48:23.177Z,15.40
2023-05-02T06:50:51.859Z,16.58
2023-05-02T06:53:18.525Z,17.60
2023-05-02T06:55:46.297Z,18.38
2023-05-02T06:58:12.955Z,16.15
2023-05-02T07:00:39.647Z,14.80
2023-05-02T07:03:06.605Z,14.30
2023-05-02T07:05:33.326Z,15.52
2023-05-02T07:08:00.115Z,15.02
2023-05-02T07:10:26.704Z,16.58
2023-05-02T07:12:53.256Z,15.98
2023-05-02T07:15:19.863Z,14.52
2023-05-02T07:17:47.750Z,17.35
2023-05-02T07:20:15.641Z,14.73
2023-05-02T07:22:43.253Z,15.63
2023-05-02T07:25:10.624Z,12.15
2023-05-02T07:27:37.271Z,12.88
2023-05-02T07:30:04.536Z,15.32
2023-05-02T07:32:31.507Z,12.85
2023-05-02T07:34:58.335Z,13.88
2023-05-02T07:37:25.136Z,14.13
2023-05-02T07:39:51.771Z,13.27
2023-05-02T07:42:18.426Z,11.82
2023-05-02T07:44:45.086Z,14.15
2023-05-02T07:47:11.725Z,13.88
2023-05-02T07:49:38.393Z,12.93
2023-05-02T07:52:05.149Z,12.25
2023-05-02T07:54:31.860Z,12.18
2023-05-02T07:57:02.289Z,14.45
2023-05-02T07:59:31.079Z,11.73
2023-05-02T08:01:57.826Z,10.90
2023-05-02T08:04:24.525Z,12.15
2023-05-02T08:06:51.736Z,11.98
2023-05-02T08:09:18.539Z,15.98
2023-05-02T08:11:45.245Z,11.10
2023-05-02T08:14:11.949Z,10.77
2023-05-02T08:16:38.818Z,12.43
2023-05-02T08:19:05.663Z,11.48
2023-05-02T08:21:32.495Z,10.55
2023-05-02T08:23:59.398Z,12.07
2023-05-02T08:26:26.244Z,10.77
2023-05-02T08:28:53.098Z,10.05
2023-05-02T08:31:19.775Z,11.52
2023-05-02T08:33:46.734Z,9.88
2023-05-02T08:36:15.074Z,10.75
2023-05-02T08:41:13.856Z,11.35
2023-05-02T08:43:40.823Z,10.82
2023-05-02T08:46:08.504Z,11.25
2023-05-02T08:48:40.477Z,11.40
2023-05-02T08:51:13.705Z,10.82
2023-05-02T08:53:41.547Z,11.00
2023-05-02T08:56:09.675Z,11.68
2023-05-02T08:58:38.006Z,11.32
2023-05-02T09:03:37.239Z,10.40
2023-05-02T09:06:07.199Z,10.10
2023-05-02T09:08:35.786Z,11.35
2023-05-02T09:11:04.015Z,10.75
2023-05-02T09:13:38.574Z,8.90
2023-05-02T09:16:15.920Z,10.95
2023-05-02T09:18:44.386Z,9.93
2023-05-02T09:21:22.036Z,10.50
2023-05-02T09:23:49.693Z,10.00
2023-05-02T09:26:21.577Z,12.20
2023-05-02T09:28:55.834Z,10.52
2023-05-02T09:31:49.400Z,9.23
2023-05-02T09:34:16.207Z,10.35
2023-05-02T09:36:45.306Z,10.25
2023-05-02T09:39:14.316Z,10.93
2023-05-02T09:41:45.563Z,10.57
2023-05-02T09:44:13.974Z,11.20
2023-05-02T09:46:42.575Z,10.50
2023-05-02T09:49:10.027Z,12.55
2023-05-02T09:51:37.071Z,12.05
2023-05-02T09:54:04.387Z,11.35
2023-05-02T09:56:31.039Z,12.73
2023-05-02T09:59:16.583Z,12.30
2023-05-02T10:01:43.691Z,10.07
2023-05-02T10:04:18.919Z,9.77
2023-05-02T10:06:47.312Z,10.57
2023-05-02T10:09:19.725Z,10.77
2023-05-02T10:11:52.010Z,12.02
2023-05-02T10:14:22.758Z,11.20
2023-05-02T10:17:01.723Z,10.70
2023-05-02T10:19:54.767Z,11.52
2023-05-02T10:22:22.485Z,11.05
2023-05-02T10:24:50.384Z,10.65
2023-05-02T10:27:17.162Z,11.25
2023-05-02T10:29:44.783Z,13.40
2023-05-02T10:32:11.499Z,11.82
2023-05-02T10:34:40.567Z,10.60
2023-05-02T10:37:07.273Z,10.68
2023-05-02T10:39:34.146Z,12.00
2023-05-02T10:42:03.483Z,11.45
2023-05-02T10:44:37.919Z,13.05
2023-05-02T10:47:21.753Z,13.75
2023-05-02T10:49:52.518Z,10.43
2023-05-02T10:52:29.115Z,10.88
2023-05-02T10:55:21.725Z,10.10
2023-05-02T10:57:57.587Z,10.95
2023-05-02T11:00:26.396Z,14.75
2023-05-02T11:02:53.192Z,12.02
2023-05-02T11:05:19.895Z,10.15
2023-05-02T11:07:46.556Z,12.95
2023-05-02T11:10:22.327Z,10.93
2023-05-02T11:12:49.843Z,12.65
2023-05-02T11:15:39.517Z,8.88
2023-05-02T11:18:13.569Z,11.77
2023-05-02T11:20:42.188Z,12.98
2023-05-02T11:23:15.438Z,8.27
2023-05-02T11:25:44.209Z,8.77
2023-05-02T11:28:38.642Z,8.68
2023-05-02T11:31:06.681Z,8.30
2023-05-02T11:33:33.790Z,8.95
2023-05-02T11:36:00.598Z,8.60
2023-05-02T11:38:36.935Z,8.73
2023-05-02T11:41:04.414Z,7.95
2023-05-02T11:43:32.387Z,8.07
2023-05-02T11:48:27.600Z,9.75
2023-05-02T11:51:03.581Z,9.03
2023-05-02T11:53:31.473Z,7.72
2023-05-02T11:55:59.208Z,9.23
2023-05-02T11:58:30.255Z,8.85
2023-05-02T12:00:57.323Z,9.88
2023-05-02T12:03:31.174Z,7.35
2023-05-02T12:06:11.087Z,6.30
2023-05-02T12:08:38.323Z,6.43
2023-05-02T12:11:05.096Z,8.45
2023-05-02T12:13:31.741Z,6.72
2023-05-02T12:15:58.736Z,7.70
2023-05-02T12:18:27.161Z,8.55
2023-05-02T12:20:56.056Z,8.60
2023-05-02T12:23:26.313Z,6.22
2023-05-02T12:25:53.250Z,6.43
2023-05-02T12:28:20.400Z,6.60
2023-05-02T12:30:50.296Z,7.63
2023-05-02T12:33:17.805Z,6.93
2023-05-02T12:35:48.186Z,6.30
2023-05-02T12:38:22.751Z,7.50
2023-05-02T12:40:54.029Z,6.13
2023-05-02T12:43:22.140Z,5.88
2023-05-02T12:45:49.745Z,7.07
2023-05-02T12:48:27.603Z,7.97
2023-05-02T12:50:55.453Z,5.93
2023-05-02T12:53:54.705Z,7.95
2023-05-02T12:56:22.105Z,8.98
2023-05-02T12:58:49.326Z,9.50
2023-05-02T13:01:16.232Z,18.05
2023-05-02T13:03:43.972Z,7.57
2023-05-02T13:06:11.129Z,8.77
2023-05-02T13:08:38.034Z,7.50
2023-05-02T13:11:05.043Z,8.40
2023-05-02T13:13:32.699Z,7.57
2023-05-02T13:15:59.502Z,7.85
2023-05-02T13:18:28.124Z,7.53
2023-05-02T13:20:54.999Z,6.13
2023-05-02T13:23:21.644Z,6.82
2023-05-02T13:25:48.225Z,6.90
2023-05-02T13:28:14.957Z,5.18
2023-05-02T13:30:41.730Z,4.97
2023-05-02T13:33:08.525Z,5.25
2023-05-02T13:35:35.471Z,6.45
2023-05-02T13:38:03.230Z,6.13
2023-05-02T13:40:29.888Z,5.32
2023-05-02T13:42:56.487Z,5.43
2023-05-02T13:45:23.186Z,6.07
2023-05-02T13:47:49.851Z,5.53
2023-05-02T13:50:16.666Z,6.85
2023-05-02T13:52:43.311Z,5.85
2023-05-02T13:55:10.015Z,5.38
2023-05-02T13:57:36.636Z,5.85
2023-05-02T14:00:04.375Z,5.95
2023-05-02T14:02:31.835Z,5.20
2023-05-02T14:04:58.495Z,5.13
2023-05-02T14:07:25.197Z,7.55
2023-05-02T14:09:51.824Z,6.72
2023-05-02T14:12:18.419Z,7.10
2023-05-02T14:14:44.999Z,5.20
2023-05-02T14:17:11.580Z,5.05
2023-05-02T14:19:38.181Z,6.85
2023-05-02T14:22:04.862Z,4.78
2023-05-02T14:24:31.505Z,3.58
2023-05-02T14:26:58.520Z,5.55
2023-05-02T14:29:25.168Z,5.38
2023-05-02T14:31:51.809Z,4.03
2023-05-02T14:34:18.648Z,5.38
2023-05-02T14:36:45.427Z,5.93
2023-05-02T14:39:12.082Z,5.05
2023-05-02T14:41:38.672Z,4.30
2023-05-02T14:44:05.338Z,4.30
2023-05-02T14:46:32.027Z,4.15
2023-05-02T14:48:58.652Z,4.18
2023-05-02T14:51:25.417Z,3.85
2023-05-02T14:53:52.445Z,7.30
2023-05-02T14:56:19.150Z,5.00
2023-05-02T14:58:46.251Z,3.80
2023-05-02T15:01:20.466Z,7.50
2023-05-02T15:04:04.330Z,7.65
2023-05-02T15:06:32.724Z,3.65
2023-05-02T15:08:59.536Z,4.00
2023-05-02T15:11:26.107Z,4.93
2023-05-02T15:13:52.686Z,5.80
2023-05-02T15:16:19.609Z,6.05
2023-05-02T15:18:46.324Z,4.95
2023-05-02T15:21:14.204Z,9.10
2023-05-02T15:23:40.977Z,5.35
2023-05-02T15:26:07.624Z,5.13
2023-05-02T15:28:34.238Z,8.43
2023-05-02T15:31:00.910Z,7.28
2023-05-02T15:33:28.688Z,5.45
2023-05-02T15:36:00.736Z,6.80
2023-05-02T15:38:27.621Z,5.65
2023-05-02T15:41:00.147Z,7.75
2023-05-02T15:43:46.261Z,8.77
2023-05-02T15:50:58.792Z,10.07
2023-05-02T15:53:25.589Z,8.85
2023-05-02T15:55:52.684Z,7.90
2023-05-02T15:58:19.722Z,9.93
2023-05-02T16:00:47.478Z,9.55
2023-05-02T16:03:14.302Z,8.75
2023-05-02T16:05:41.353Z,13.82
2023-05-02T16:08:08.029Z,9.50
2023-05-02T16:10:36.574Z,10.80
2023-05-02T16:13:03.371Z,9.15
2023-05-02T16:15:30.475Z,9.65
2023-05-02T16:17:57.556Z,13.30
2023-05-02T16:20:24.486Z,9.82
2023-05-02T16:22:51.373Z,9.80
2023-05-02T16:25:18.804Z,12.05
2023-05-02T16:27:45.622Z,10.00
2023-05-02T16:30:13.102Z,10.52
2023-05-02T16:32:40.515Z,10.57
2023-05-02T16:35:10.667Z,10.75
2023-05-02T16:37:37.559Z,7.88
2023-05-02T16:40:05.958Z,8.38
2023-05-02T16:42:33.162Z,9.45
2023-05-02T16:45:00.036Z,9.00
2023-05-02T16:47:28.004Z,10.13
2023-05-02T16:49:56.078Z,8.82
2023-05-02T16:52:23.078Z,9.60
2023-05-02T16:54:50.363Z,10.45
2023-05-02T16:57:19.760Z,7.82
2023-05-02T16:59:47.900Z,7.47
2023-05-02T17:02:15.749Z,7.82
2023-05-02T17:04:42.792Z,6.97
2023-05-02T17:07:11.714Z,6.03
2023-05-02T17:09:39.360Z,7.93
2023-05-02T17:12:07.104Z,7.30
2023-05-02T17:14:33.887Z,8.07
2023-05-02T17:17:01.040Z,8.85
2023-05-02T17:19:27.917Z,9.25
2023-05-02T17:21:54.893Z,7.57
2023-05-02T17:24:21.583Z,7.38
2023-05-02T17:26:49.012Z,10.55
2023-05-02T17:29:15.748Z,8.00
2023-05-02T17:31:43.419Z,9.38
2023-05-02T17:34:10.300Z,8.18
2023-05-02T17:36:37.041Z,7.30
2023-05-02T17:39:06.838Z,7.03
2023-05-02T17:41:36.440Z,7.38
2023-05-02T17:44:04.874Z,7.15
2023-05-02T17:46:32.674Z,8.52
2023-05-02T17:49:00.710Z,7.25
2023-05-02T17:51:27.567Z,6.75
2023-05-02T17:53:54.237Z,8.18
2023-05-02T17:56:21.012Z,7.10
2023-05-02T17:58:48.030Z,8.05
2023-05-02T18:01:14.807Z,6.80
2023-05-02T18:03:41.802Z,8.95
2023-05-02T18:06:09.020Z,8.18
2023-05-02T18:08:35.803Z,8.13
2023-05-02T18:11:03.435Z,9.60
2023-05-02T18:13:30.958Z,7.75
2023-05-02T18:15:58.672Z,9.77
2023-05-02T18:18:25.721Z,7.20
2023-05-02T18:20:52.403Z,7.90
2023-05-02T18:23:19.058Z,7.57
2023-05-02T18:25:45.680Z,7.15
2023-05-02T18:28:13.460Z,8.20
2023-05-02T18:30:40.339Z,9.35
2023-05-02T18:33:08.099Z,8.40
2023-05-02T18:35:35.610Z,7.72
2023-05-02T18:38:02.682Z,9.47
2023-05-02T18:40:29.339Z,8.55
2023-05-02T18:42:56.030Z,9.30
2023-05-02T18:45:22.680Z,8.90
2023-05-02T18:47:51.094Z,9.13
2023-05-02T18:50:18.267Z,9.15
2023-05-02T18:52:44.898Z,8.40
2023-05-02T18:55:11.555Z,9.27
2023-05-02T18:57:38.163Z,9.93
2023-05-02T19:00:08.138Z,10.88
2023-05-02T19:02:35.030Z,11.40
2023-05-02T19:05:10.826Z,10.65
2023-05-02T19:07:38.444Z,10.32
2023-05-02T19:10:05.758Z,10.48
2023-05-02T19:12:32.567Z,8.55
2023-05-02T19:14:59.450Z,11.93
2023-05-02T19:17:26.747Z,10.93
2023-05-02T19:19:53.997Z,8.98
2023-05-02T19:22:22.266Z,7.83
2023-05-02T19:24:49.442Z,9.30
2023-05-02T19:27:16.104Z,11.35
2023-05-02T19:29:42.819Z,11.00
2023-05-02T19:32:09.800Z,10.23
2023-05-02T19:34:37.152Z,8.15
2023-05-02T19:37:04.147Z,9.38
2023-05-02T19:39:31.514Z,10.50
2023-05-02T19:41:58.195Z,11.73
2023-05-02T19:44:24.864Z,14.40
2023-05-02T19:46:51.556Z,11.95
2023-05-02T19:49:18.112Z,11.43
2023-05-02T19:51:44.761Z,14.02
2023-05-02T19:54:11.795Z,13.57
2023-05-02T19:56:38.494Z,12.65
2023-05-02T19:59:05.104Z,10.43
2023-05-02T20:01:32.136Z,10.60
2023-05-02T20:03:58.854Z,8.63
2023-05-02T20:06:26.191Z,13.18
2023-05-02T20:08:52.939Z,12.85
2023-05-02T20:11:19.747Z,14.30
2023-05-02T20:13:46.415Z,12.18
2023-05-02T20:16:16.204Z,32.17
2023-05-02T20:18:42.912Z,18.48
2023-05-02T20:21:09.506Z,15.23
2023-05-02T20:23:36.162Z,13.25
2023-05-02T20:26:03.458Z,13.65
